Huvudsida
METAR-TAF:

METAR-TAF

Flygplatser :

Koror, Babeldaob, Palau

latitud: 07-22N, longitud: 134-32E, höjd: 54 m

Aktuellt väderrapport

Denna rapport gjordes för 31 minuter sedan, klockan 14:50 UTC
Vind 10 kt från sydväst i byarna ända upp till 15 kt
Temperatur 27°C
Fuktighet 84%
Tryck 1010 hPa
Sikt: 24.1 km
Brutna moln på en höjd av 1600 ft
Brutna moln på en höjd av 30000 ft

METAR: PTRO 261450Z 22010G15KT 15SM BKN016 BKN300 27/24 A2982

Tid: 00:21 (15:21 UTC)

Väderprognos

Denna rapport gjordes för 4 timmar och 1 minuter sedan, klockan 11:20 UTC
Prognos gäller från 26 kl. 12 UTC till 27 kl. 12 UTC
Vind 7 kt från väst/sydväst
Sikt: 10 km
Spridda moln på en höjd av 1600 ft
Brutna moln på en höjd av 12000 ft

TAF: PTRO 261120Z 2612/2712 25007KT P6SM SCT016 BKN120

Aktuella väderrapporter och prognoser från 4000 flygplatser (METAR- och TAF-rapporter).

De tillgängliga stationerna syns som gula och röda prickar på kartan.

För musen över prickarna för att se namnen på stationerna.

Klicka sedan för att få väderrapporter och prognoser.

För att ändra kartan: Klicka på de gröna knapparna med ett svart kors på för att zooma in; den gröna knappen med ett streck på för att zooma ut; eller på de gröna pilarna för angränsande kartor.


METAR-TAF: